createdAt,value
2023-01-19T00:00:54.271Z,19.10
2023-01-19T00:03:21.821Z,20.53
2023-01-19T00:05:49.354Z,16.57
2023-01-19T00:08:16.887Z,22.30
2023-01-19T00:10:46.809Z,15.50
2023-01-19T00:13:14.962Z,16.23
2023-01-19T00:15:42.072Z,15.43
2023-01-19T00:18:10.879Z,19.23
2023-01-19T00:20:39.085Z,16.43
2023-01-19T00:23:08.181Z,18.27
2023-01-19T00:25:42.427Z,17.87
2023-01-19T00:28:14.945Z,19.13
2023-01-19T00:30:42.778Z,17.97
2023-01-19T00:33:11.223Z,19.47
2023-01-19T00:35:38.651Z,18.00
2023-01-19T00:38:05.795Z,14.70
2023-01-19T00:40:32.954Z,17.63
2023-01-19T00:43:00.916Z,16.40
2023-01-19T00:45:28.362Z,14.23
2023-01-19T00:47:57.333Z,17.27
2023-01-19T00:50:26.338Z,20.97
2023-01-19T00:52:55.379Z,21.70
2023-01-19T00:55:23.358Z,15.17
2023-01-19T00:57:50.442Z,18.87
2023-01-19T01:00:19.884Z,14.17
2023-01-19T01:02:48.115Z,14.40
2023-01-19T01:05:15.887Z,17.93
2023-01-19T01:07:44.723Z,15.03
2023-01-19T01:10:17.485Z,16.37
2023-01-19T01:12:53.626Z,17.13
2023-01-19T01:15:26.493Z,16.20
2023-01-19T01:17:53.905Z,18.00
2023-01-19T01:20:24.428Z,20.30
2023-01-19T01:22:53.508Z,15.67
2023-01-19T01:25:25.647Z,20.77
2023-01-19T01:27:53.772Z,17.43
2023-01-19T01:30:21.387Z,17.87
2023-01-19T01:32:48.707Z,15.90
2023-01-19T01:35:16.520Z,17.70
2023-01-19T01:37:44.360Z,17.07
2023-01-19T01:40:14.303Z,19.40
2023-01-19T01:42:42.680Z,17.33
2023-01-19T01:45:38.501Z,23.17
2023-01-19T01:48:28.632Z,17.27
2023-01-19T01:51:19.570Z,16.47
2023-01-19T01:53:58.088Z,16.10
2023-01-19T01:56:34.273Z,17.77
2023-01-19T01:59:05.678Z,21.10
2023-01-19T02:01:51.479Z,18.90
2023-01-19T02:04:19.205Z,24.33
2023-01-19T02:07:06.373Z,16.40
2023-01-19T02:09:55.265Z,18.40
2023-01-19T02:12:42.292Z,18.93
2023-01-19T02:15:20.416Z,15.57
2023-01-19T02:17:48.077Z,16.87
2023-01-19T02:20:15.985Z,18.67
2023-01-19T02:22:50.054Z,17.87
2023-01-19T02:25:19.335Z,16.37
2023-01-19T02:27:47.146Z,20.03
2023-01-19T02:30:16.765Z,19.93
2023-01-19T02:32:44.246Z,18.03
2023-01-19T02:35:12.623Z,17.53
2023-01-19T02:37:42.213Z,21.40
2023-01-19T02:40:13.047Z,21.27
2023-01-19T02:42:45.701Z,24.17
2023-01-19T02:45:15.399Z,22.60
2023-01-19T02:47:48.034Z,20.60
2023-01-19T02:50:52.356Z,24.90
2023-01-19T02:54:04.314Z,23.13
2023-01-19T02:56:42.631Z,20.20
2023-01-19T02:59:50.151Z,21.20
2023-01-19T03:02:44.256Z,24.27
2023-01-19T03:05:48.788Z,21.87
2023-01-19T03:08:59.089Z,19.73
2023-01-19T03:11:33.838Z,20.03
2023-01-19T03:14:12.220Z,20.17
2023-01-19T03:16:58.320Z,18.80
2023-01-19T03:19:34.364Z,20.70
2023-01-19T03:22:23.714Z,20.00
2023-01-19T03:24:53.746Z,20.13
2023-01-19T03:27:41.345Z,16.73
2023-01-19T03:30:15.910Z,22.67
2023-01-19T03:32:50.741Z,17.97
2023-01-19T03:35:20.724Z,16.30
2023-01-19T03:37:53.108Z,15.97
2023-01-19T03:40:21.400Z,16.03
2023-01-19T03:42:50.329Z,16.53
2023-01-19T03:45:18.391Z,15.60
2023-01-19T03:47:45.793Z,16.43
2023-01-19T03:50:20.829Z,16.10
2023-01-19T03:53:01.511Z,16.67
2023-01-19T03:55:29.089Z,17.00
2023-01-19T03:57:56.149Z,18.17
2023-01-19T04:00:23.583Z,18.57
2023-01-19T04:02:50.695Z,20.20
2023-01-19T04:05:19.229Z,17.97
2023-01-19T04:07:49.588Z,17.27
2023-01-19T04:10:19.900Z,17.67
2023-01-19T04:12:47.032Z,18.53
2023-01-19T04:15:14.704Z,15.27
2023-01-19T04:17:42.004Z,18.30
2023-01-19T04:20:09.938Z,20.27
2023-01-19T04:22:38.920Z,16.33
2023-01-19T04:25:07.415Z,21.47
2023-01-19T04:27:34.688Z,20.40
2023-01-19T04:30:02.208Z,20.40
2023-01-19T04:32:29.634Z,19.20
2023-01-19T04:34:56.657Z,19.60
2023-01-19T04:37:23.751Z,19.73
2023-01-19T04:39:50.956Z,19.87
2023-01-19T04:42:18.100Z,16.90
2023-01-19T04:44:45.166Z,20.27
2023-01-19T04:47:12.311Z,20.17
2023-01-19T04:49:39.356Z,21.73
2023-01-19T04:52:06.860Z,18.50
2023-01-19T04:54:34.007Z,17.70
2023-01-19T04:57:01.179Z,18.90
2023-01-19T04:59:28.247Z,19.93
2023-01-19T05:01:56.724Z,20.23
2023-01-19T05:04:25.704Z,21.20
2023-01-19T05:06:54.279Z,18.47
2023-01-19T05:09:21.748Z,19.57
2023-01-19T05:11:48.813Z,18.37
2023-01-19T05:14:15.874Z,20.90
2023-01-19T05:16:43.008Z,18.47
2023-01-19T05:19:10.087Z,21.60
2023-01-19T05:21:37.138Z,17.70
2023-01-19T05:24:04.515Z,19.20
2023-01-19T05:26:31.581Z,21.47
2023-01-19T05:28:58.600Z,21.27
2023-01-19T05:31:25.856Z,22.03
2023-01-19T05:33:52.987Z,22.27
2023-01-19T05:36:20.039Z,22.57
2023-01-19T05:38:47.095Z,16.67
2023-01-19T05:41:14.352Z,19.87
2023-01-19T05:43:41.397Z,23.60
2023-01-19T05:46:08.557Z,20.33
2023-01-19T05:48:35.610Z,21.97
2023-01-19T05:51:02.732Z,29.13
2023-01-19T05:53:29.775Z,21.90
2023-01-19T05:56:01.201Z,22.13
2023-01-19T05:58:29.032Z,18.30
2023-01-19T06:00:56.224Z,24.20
2023-01-19T06:03:23.534Z,17.90
2023-01-19T06:05:50.619Z,18.70
2023-01-19T06:08:17.719Z,21.57
2023-01-19T06:10:44.814Z,18.37
2023-01-19T06:13:11.895Z,15.83
2023-01-19T06:15:38.970Z,21.73
2023-01-19T06:18:06.234Z,18.53
2023-01-19T06:20:33.301Z,22.87
2023-01-19T06:23:00.847Z,17.13
2023-01-19T06:25:28.167Z,18.90
2023-01-19T06:27:55.300Z,16.50
2023-01-19T06:30:22.628Z,20.50
2023-01-19T06:32:49.715Z,13.33
2023-01-19T06:35:16.851Z,19.77
2023-01-19T06:37:43.944Z,16.83
2023-01-19T06:40:13.737Z,25.07
2023-01-19T06:42:41.719Z,17.17
2023-01-19T06:45:10.289Z,17.70
2023-01-19T06:47:37.361Z,17.23
2023-01-19T06:50:04.794Z,16.47
2023-01-19T06:52:31.938Z,20.10
2023-01-19T06:54:58.994Z,20.20
2023-01-19T06:57:26.197Z,18.83
2023-01-19T06:59:53.313Z,17.43
2023-01-19T07:02:27.640Z,21.53
2023-01-19T07:04:57.054Z,18.37
2023-01-19T07:07:24.220Z,19.80
2023-01-19T07:09:53.958Z,20.30
2023-01-19T07:12:22.000Z,21.57
2023-01-19T07:14:49.650Z,21.63
2023-01-19T07:17:16.943Z,19.30
2023-01-19T07:19:44.243Z,20.27
2023-01-19T07:22:11.334Z,19.47
2023-01-19T07:24:38.478Z,19.53
2023-01-19T07:27:05.811Z,15.33
2023-01-19T07:29:32.914Z,17.20
2023-01-19T07:32:00.048Z,17.10
2023-01-19T07:34:27.202Z,15.87
2023-01-19T07:36:56.092Z,19.60
2023-01-19T07:39:23.173Z,16.87
2023-01-19T07:41:50.341Z,18.80
2023-01-19T07:44:17.624Z,17.17
2023-01-19T07:46:44.875Z,21.77
2023-01-19T07:49:12.834Z,16.80
2023-01-19T07:51:39.935Z,18.17
2023-01-19T07:54:08.597Z,16.60
2023-01-19T07:56:35.872Z,19.73
2023-01-19T07:59:03.051Z,15.27
2023-01-19T08:01:31.611Z,17.83
2023-01-19T08:03:59.085Z,17.90
2023-01-19T08:06:45.813Z,16.00
2023-01-19T08:09:13.296Z,21.83
2023-01-19T08:11:40.544Z,16.53
2023-01-19T08:14:08.178Z,20.63
2023-01-19T08:16:36.002Z,15.93
2023-01-19T08:19:03.913Z,14.63
2023-01-19T08:21:31.321Z,13.13
2023-01-19T08:23:58.706Z,14.97
2023-01-19T08:26:31.299Z,14.67
2023-01-19T08:29:00.802Z,15.33
2023-01-19T08:31:29.664Z,14.93
2023-01-19T08:33:57.187Z,12.57
2023-01-19T08:36:25.266Z,14.60
2023-01-19T08:38:52.498Z,13.83
2023-01-19T08:41:19.608Z,14.83
2023-01-19T08:43:46.883Z,13.50
2023-01-19T08:46:17.753Z,14.20
2023-01-19T08:48:50.801Z,17.97
2023-01-19T08:51:18.502Z,13.60
2023-01-19T08:53:45.616Z,13.27
2023-01-19T08:56:13.975Z,12.07
2023-01-19T08:58:42.266Z,13.30
2023-01-19T09:01:10.726Z,14.80
2023-01-19T09:03:37.943Z,11.27
2023-01-19T09:06:09.179Z,12.47
2023-01-19T09:08:36.403Z,15.17
2023-01-19T09:11:03.729Z,13.13
2023-01-19T09:13:30.965Z,10.10
2023-01-19T09:15:58.100Z,15.33
2023-01-19T09:18:25.335Z,11.20
2023-01-19T09:20:52.456Z,10.00
2023-01-19T09:23:21.037Z,14.33
2023-01-19T09:25:48.204Z,13.20
2023-01-19T09:28:17.693Z,16.93
2023-01-19T09:30:45.432Z,13.77
2023-01-19T09:33:15.939Z,15.43
2023-01-19T09:35:44.742Z,11.30
2023-01-19T09:38:12.659Z,11.83
2023-01-19T09:41:04.711Z,14.17
2023-01-19T09:43:42.829Z,10.47
2023-01-19T09:46:21.801Z,15.07
2023-01-19T09:48:56.637Z,11.63
2023-01-19T09:51:29.831Z,13.43
2023-01-19T09:54:47.084Z,9.77
2023-01-19T09:57:15.046Z,13.10
2023-01-19T09:59:47.803Z,9.50
2023-01-19T10:02:40.163Z,9.30
2023-01-19T10:05:50.981Z,11.60
2023-01-19T10:08:35.385Z,12.27
2023-01-19T10:11:03.023Z,14.57
2023-01-19T10:14:03.963Z,9.80
2023-01-19T10:16:55.876Z,18.97
2023-01-19T10:19:46.551Z,13.23
2023-01-19T10:22:25.688Z,12.20
2023-01-19T10:24:59.189Z,14.07
2023-01-19T10:27:31.369Z,11.07
2023-01-19T10:29:59.200Z,11.37
2023-01-19T10:32:31.003Z,10.90
2023-01-19T10:34:59.998Z,15.00
2023-01-19T10:37:37.917Z,15.57
2023-01-19T10:40:37.287Z,11.77
2023-01-19T10:43:38.016Z,14.70
2023-01-19T10:46:42.674Z,11.17
2023-01-19T10:49:35.543Z,13.97
2023-01-19T10:52:05.394Z,10.53
2023-01-19T10:54:34.728Z,13.53
2023-01-19T10:57:04.410Z,24.70
2023-01-19T10:59:38.273Z,10.20
2023-01-19T11:02:36.462Z,10.90
2023-01-19T11:05:25.315Z,11.23
2023-01-19T11:07:52.671Z,12.73
2023-01-19T11:10:25.639Z,13.70
2023-01-19T11:13:12.901Z,10.50
2023-01-19T11:15:52.219Z,11.50
2023-01-19T11:18:29.423Z,8.90
2023-01-19T11:21:02.270Z,10.47
2023-01-19T11:24:10.797Z,9.60
2023-01-19T11:26:50.110Z,7.13
2023-01-19T11:29:23.995Z,11.10
2023-01-19T11:31:52.513Z,8.17
2023-01-19T11:34:37.570Z,11.10
2023-01-19T11:37:23.753Z,9.13
2023-01-19T11:39:57.310Z,8.47
2023-01-19T11:42:25.530Z,9.10
2023-01-19T11:45:19.360Z,7.30
2023-01-19T11:47:50.419Z,7.97
2023-01-19T11:50:44.840Z,10.17
2023-01-19T11:53:34.132Z,8.50
2023-01-19T11:56:15.353Z,9.17
2023-01-19T11:58:48.142Z,9.70
2023-01-19T12:01:34.292Z,8.00
2023-01-19T12:04:10.402Z,8.33
2023-01-19T12:06:45.610Z,7.33
2023-01-19T12:09:29.157Z,8.27
2023-01-19T12:12:45.958Z,9.47
2023-01-19T12:15:41.993Z,6.23
2023-01-19T12:18:26.100Z,7.77
2023-01-19T12:20:55.490Z,15.77
2023-01-19T12:23:53.688Z,13.17
2023-01-19T12:26:46.614Z,8.43
2023-01-19T12:29:19.911Z,8.10
2023-01-19T12:32:20.372Z,10.13
2023-01-19T12:34:49.530Z,10.63
2023-01-19T12:37:48.959Z,16.07
2023-01-19T12:40:29.103Z,13.23
2023-01-19T12:43:03.199Z,10.63
2023-01-19T12:45:39.928Z,9.50
2023-01-19T12:48:24.632Z,9.03
2023-01-19T12:50:51.847Z,8.87
2023-01-19T12:53:21.148Z,11.07
2023-01-19T12:56:00.159Z,7.30
2023-01-19T12:58:27.692Z,8.93
2023-01-19T13:01:16.787Z,9.17
2023-01-19T13:04:33.088Z,9.23
2023-01-19T13:07:10.536Z,11.27
2023-01-19T13:09:39.293Z,10.23
2023-01-19T13:12:21.529Z,9.67
2023-01-19T13:14:50.818Z,9.80
2023-01-19T13:17:27.157Z,7.70
2023-01-19T13:20:03.115Z,6.93
2023-01-19T13:23:12.808Z,9.80
2023-01-19T13:25:41.383Z,7.63
2023-01-19T13:28:10.137Z,10.57
2023-01-19T13:30:48.908Z,9.50
2023-01-19T13:33:21.644Z,8.57
2023-01-19T13:35:57.341Z,15.23
2023-01-19T13:38:26.119Z,12.13
2023-01-19T13:40:55.124Z,11.70
2023-01-19T13:43:32.628Z,9.77
2023-01-19T13:46:00.708Z,8.50
2023-01-19T13:48:28.325Z,7.77
2023-01-19T13:51:07.366Z,15.53
2023-01-19T13:53:35.572Z,9.57
2023-01-19T13:56:35.004Z,9.20
2023-01-19T13:59:10.660Z,8.60
2023-01-19T14:01:40.037Z,7.83
2023-01-19T14:04:24.545Z,9.30
2023-01-19T14:06:55.719Z,6.70
2023-01-19T14:09:22.992Z,8.13
2023-01-19T14:12:16.440Z,10.47
2023-01-19T14:14:46.840Z,7.30
2023-01-19T14:17:32.612Z,8.87
2023-01-19T14:20:02.994Z,8.23
2023-01-19T14:22:45.135Z,8.53
2023-01-19T14:25:27.107Z,10.93
2023-01-19T14:28:45.306Z,7.93
2023-01-19T14:31:28.202Z,7.27
2023-01-19T14:33:58.550Z,7.27
2023-01-19T14:36:39.881Z,12.50
2023-01-19T14:39:17.459Z,11.90
2023-01-19T14:41:48.189Z,6.57
2023-01-19T14:44:26.237Z,15.03
2023-01-19T14:46:53.756Z,11.33
2023-01-19T14:49:37.284Z,5.93
2023-01-19T14:52:20.341Z,8.27
2023-01-19T14:54:48.592Z,15.03
2023-01-19T14:57:15.786Z,7.90
2023-01-19T14:59:48.368Z,8.03
2023-01-19T15:02:16.299Z,10.77
2023-01-19T15:04:43.336Z,7.17
2023-01-19T15:07:18.849Z,8.17
2023-01-19T15:09:47.231Z,8.87
2023-01-19T15:12:17.992Z,8.40
2023-01-19T15:14:45.713Z,7.70
2023-01-19T15:17:26.849Z,15.33
2023-01-19T15:19:55.296Z,8.47
2023-01-19T15:22:22.550Z,8.97
2023-01-19T15:24:50.088Z,8.37
2023-01-19T15:27:17.725Z,9.90
2023-01-19T15:29:46.200Z,7.33
2023-01-19T15:32:14.894Z,8.17
2023-01-19T15:34:42.438Z,8.87
2023-01-19T15:37:09.627Z,9.80
2023-01-19T15:39:36.746Z,13.40
2023-01-19T15:42:03.951Z,11.63
2023-01-19T15:44:31.305Z,11.27
2023-01-19T15:46:58.820Z,10.53
2023-01-19T15:49:26.343Z,9.93
2023-01-19T15:51:53.401Z,12.70
2023-01-19T15:54:20.614Z,13.57
2023-01-19T15:56:48.035Z,12.50
2023-01-19T15:59:15.182Z,8.77
2023-01-19T16:01:42.386Z,14.10
2023-01-19T16:04:11.885Z,9.63
2023-01-19T16:06:38.982Z,14.53
2023-01-19T16:09:06.323Z,17.03
2023-01-19T16:11:35.247Z,21.07
2023-01-19T16:14:02.469Z,21.33
2023-01-19T16:16:29.957Z,23.47
2023-01-19T16:18:58.181Z,14.23
2023-01-19T16:21:25.390Z,16.63
2023-01-19T16:23:52.974Z,15.63
2023-01-19T16:26:34.802Z,12.77
2023-01-19T16:29:08.647Z,7.97
2023-01-19T16:31:40.440Z,10.98
2023-01-19T16:34:07.991Z,9.40
2023-01-19T16:36:37.628Z,10.37
2023-01-19T16:39:07.769Z,9.43
2023-01-19T16:41:35.775Z,11.47
2023-01-19T16:44:03.755Z,9.40
2023-01-19T16:46:36.534Z,14.57
2023-01-19T16:49:06.456Z,11.90
2023-01-19T16:51:33.612Z,11.00
2023-01-19T16:54:00.831Z,11.37
2023-01-19T16:56:28.117Z,9.03
2023-01-19T16:58:56.687Z,7.73
2023-01-19T17:01:24.811Z,10.10
2023-01-19T17:03:52.488Z,8.93
2023-01-19T17:06:24.274Z,10.17
2023-01-19T17:08:52.938Z,10.87
2023-01-19T17:11:25.423Z,7.97
2023-01-19T17:14:00.251Z,8.60
2023-01-19T17:16:29.071Z,8.83
2023-01-19T17:19:01.212Z,10.73
2023-01-19T17:21:29.041Z,11.60
2023-01-19T17:23:57.420Z,14.27
2023-01-19T17:26:25.943Z,13.50
2023-01-19T17:28:57.445Z,8.03
2023-01-19T17:31:24.564Z,9.17
2023-01-19T17:33:51.881Z,12.83
2023-01-19T17:36:22.658Z,11.23
2023-01-19T17:38:50.391Z,12.77
2023-01-19T17:41:23.358Z,13.03
2023-01-19T17:43:51.431Z,10.37
2023-01-19T17:46:20.990Z,10.73
2023-01-19T17:48:59.639Z,13.37
2023-01-19T17:51:27.769Z,12.30
2023-01-19T17:53:55.516Z,13.57
2023-01-19T17:56:29.674Z,9.93
2023-01-19T17:58:58.578Z,10.43
2023-01-19T18:01:28.830Z,10.67
2023-01-19T18:03:56.836Z,7.40
2023-01-19T18:06:24.066Z,9.97
2023-01-19T18:08:51.336Z,7.90
2023-01-19T18:11:20.467Z,9.90
2023-01-19T18:13:48.841Z,8.23
2023-01-19T18:16:24.629Z,9.33
2023-01-19T18:18:53.772Z,10.50
2023-01-19T18:21:22.264Z,9.40
2023-01-19T18:23:51.049Z,9.57
2023-01-19T18:26:22.459Z,15.80
2023-01-19T18:28:50.194Z,11.77
2023-01-19T18:31:19.223Z,11.33
2023-01-19T18:33:48.427Z,11.53
2023-01-19T18:36:16.317Z,11.60
2023-01-19T18:38:44.459Z,14.53
2023-01-19T18:41:14.304Z,10.00
2023-01-19T18:43:41.575Z,10.23
2023-01-19T18:46:09.249Z,13.83
2023-01-19T18:48:37.761Z,10.00
2023-01-19T18:51:13.453Z,10.53
2023-01-19T18:53:40.913Z,9.53
2023-01-19T18:56:10.657Z,10.47
2023-01-19T18:58:38.873Z,8.00
2023-01-19T19:01:21.858Z,8.43
2023-01-19T19:03:49.302Z,8.93
2023-01-19T19:06:19.118Z,9.50
2023-01-19T19:08:47.261Z,7.47
2023-01-19T19:11:14.383Z,10.63
2023-01-19T19:13:41.737Z,9.03
2023-01-19T19:16:10.615Z,9.30
2023-01-19T19:18:38.962Z,7.73
2023-01-19T19:21:11.896Z,8.97
2023-01-19T19:23:39.223Z,8.53
2023-01-19T19:26:08.793Z,9.27
2023-01-19T19:28:37.308Z,8.83
2023-01-19T19:31:13.730Z,14.03
2023-01-19T19:33:41.018Z,11.43
2023-01-19T19:36:09.583Z,10.03
2023-01-19T19:38:37.051Z,9.90
2023-01-19T19:41:08.392Z,8.80
2023-01-19T19:43:36.229Z,9.30
2023-01-19T19:46:11.815Z,13.53
2023-01-19T19:48:39.721Z,9.57
2023-01-19T19:51:18.352Z,15.27
2023-01-19T19:53:47.486Z,12.90
2023-01-19T19:56:16.078Z,12.20
2023-01-19T19:58:43.436Z,10.67
2023-01-19T20:01:13.448Z,13.97
2023-01-19T20:03:40.670Z,9.63
2023-01-19T20:06:10.689Z,12.80
2023-01-19T20:08:38.065Z,12.03
2023-01-19T20:11:26.407Z,12.90
2023-01-19T20:13:54.068Z,12.40
2023-01-19T20:16:23.329Z,9.10
2023-01-19T20:18:54.140Z,12.67
2023-01-19T20:21:30.030Z,16.17
2023-01-19T20:24:00.527Z,15.70
2023-01-19T20:26:30.478Z,14.40
2023-01-19T20:29:00.449Z,13.43
2023-01-19T20:31:30.898Z,15.23
2023-01-19T20:34:00.387Z,15.33
2023-01-19T20:36:29.050Z,10.23
2023-01-19T20:38:57.114Z,12.43
2023-01-19T20:41:26.429Z,12.13
2023-01-19T20:43:53.949Z,12.90
2023-01-19T20:46:21.264Z,13.50
2023-01-19T20:48:52.978Z,17.53
2023-01-19T20:51:20.694Z,15.23
2023-01-19T20:53:48.125Z,17.50
2023-01-19T20:56:15.751Z,14.27
2023-01-19T20:58:43.067Z,15.37
2023-01-19T21:01:16.053Z,16.33
2023-01-19T21:03:43.899Z,14.20
2023-01-19T21:06:12.049Z,13.97
2023-01-19T21:08:39.547Z,13.03
2023-01-19T21:11:07.462Z,19.97
2023-01-19T21:13:35.532Z,15.87
2023-01-19T21:16:02.975Z,14.90
2023-01-19T21:18:30.421Z,13.87
2023-01-19T21:20:57.975Z,13.07
2023-01-19T21:23:26.592Z,17.13
2023-01-19T21:25:57.789Z,16.43
2023-01-19T21:28:25.774Z,13.13
2023-01-19T21:30:54.510Z,13.27
2023-01-19T21:33:22.496Z,15.20
2023-01-19T21:35:55.193Z,13.77
2023-01-19T21:38:23.385Z,14.37
2023-01-19T21:40:50.934Z,10.23
2023-01-19T21:43:20.136Z,12.30
2023-01-19T21:45:48.911Z,10.27
2023-01-19T21:48:16.939Z,13.63
2023-01-19T21:50:44.191Z,13.97
2023-01-19T21:53:11.655Z,13.83
2023-01-19T21:55:42.860Z,11.20
2023-01-19T21:58:09.968Z,17.90
2023-01-19T22:00:37.108Z,10.57
2023-01-19T22:03:04.955Z,17.03
2023-01-19T22:05:37.136Z,12.27
2023-01-19T22:08:06.477Z,14.27
2023-01-19T22:10:37.327Z,16.90
2023-01-19T22:13:06.774Z,14.57
2023-01-19T22:15:34.070Z,12.60
2023-01-19T22:18:01.226Z,16.20
2023-01-19T22:20:28.635Z,11.50
2023-01-19T22:22:56.877Z,12.40
2023-01-19T22:25:27.778Z,14.00
2023-01-19T22:27:56.023Z,19.17
2023-01-19T22:30:23.330Z,15.53
2023-01-19T22:32:50.575Z,15.77
2023-01-19T22:35:17.643Z,14.33
2023-01-19T22:37:44.788Z,17.50
2023-01-19T22:40:12.468Z,12.07
2023-01-19T22:42:39.706Z,13.40
2023-01-19T22:45:07.724Z,15.13
2023-01-19T22:47:34.832Z,13.60
2023-01-19T22:50:02.096Z,16.40
2023-01-19T22:52:29.223Z,17.33
2023-01-19T22:54:58.266Z,18.27
2023-01-19T22:57:25.651Z,15.90
2023-01-19T22:59:52.717Z,13.17
2023-01-19T23:02:20.933Z,15.10
2023-01-19T23:04:48.300Z,16.00
2023-01-19T23:07:15.433Z,17.50
2023-01-19T23:09:42.493Z,16.50
2023-01-19T23:12:09.658Z,19.87
2023-01-19T23:14:36.732Z,17.57
2023-01-19T23:17:03.966Z,13.13
2023-01-19T23:19:31.135Z,18.23
2023-01-19T23:21:58.279Z,15.00
2023-01-19T23:24:25.488Z,20.90
2023-01-19T23:26:52.644Z,13.80
2023-01-19T23:29:19.957Z,13.17
2023-01-19T23:31:49.096Z,21.77
2023-01-19T23:34:17.468Z,15.73
2023-01-19T23:36:44.944Z,19.53
2023-01-19T23:39:17.669Z,19.77
2023-01-19T23:41:45.108Z,17.20
2023-01-19T23:44:12.701Z,16.07
2023-01-19T23:46:39.884Z,17.80
2023-01-19T23:49:07.062Z,17.10
2023-01-19T23:51:34.668Z,20.83
2023-01-19T23:54:01.816Z,15.67
2023-01-19T23:56:31.830Z,13.90
2023-01-19T23:59:04.749Z,14.00
